createdAt,value
2023-05-19T00:00:48.171Z,9.67
2023-05-19T00:04:14.359Z,9.65
2023-05-19T00:07:39.873Z,9.62
2023-05-19T00:11:04.102Z,9.60
2023-05-19T00:14:28.827Z,9.56
2023-05-19T00:17:55.021Z,9.55
2023-05-19T00:21:19.297Z,9.53
2023-05-19T00:24:43.473Z,9.50
2023-05-19T00:28:07.824Z,9.49
2023-05-19T00:31:33.727Z,9.48
2023-05-19T00:34:57.837Z,9.49
2023-05-19T00:38:20.022Z,9.50
2023-05-19T00:41:44.132Z,9.50
2023-05-19T00:45:10.200Z,9.53
2023-05-19T00:48:33.469Z,9.57
2023-05-19T00:51:57.618Z,9.62
2023-05-19T00:55:22.456Z,9.66
2023-05-19T00:58:46.941Z,9.68
2023-05-19T01:02:10.422Z,9.67
2023-05-19T01:05:33.567Z,9.68
2023-05-19T01:08:57.744Z,9.67
2023-05-19T01:12:21.214Z,9.66
2023-05-19T01:15:58.938Z,9.64
2023-05-19T01:19:50.801Z,9.60
2023-05-19T01:23:28.330Z,9.55
2023-05-19T01:27:15.313Z,9.52
2023-05-19T01:30:42.119Z,9.47
2023-05-19T01:34:06.986Z,9.44
2023-05-19T01:37:30.905Z,9.39
2023-05-19T01:40:56.117Z,9.37
2023-05-19T01:44:21.830Z,9.32
2023-05-19T01:47:49.123Z,9.30
2023-05-19T01:51:12.671Z,9.27
2023-05-19T01:54:36.113Z,9.22
2023-05-19T01:58:11.475Z,9.22
2023-05-19T02:01:42.287Z,9.17
2023-05-19T02:05:12.822Z,9.11
2023-05-19T02:08:47.318Z,9.09
2023-05-19T02:12:16.894Z,9.06
2023-05-19T02:15:43.527Z,9.08
2023-05-19T02:19:06.874Z,9.07
2023-05-19T02:22:31.060Z,9.12
2023-05-19T02:25:54.388Z,9.15
2023-05-19T02:29:17.601Z,9.18
2023-05-19T02:32:41.325Z,9.24
2023-05-19T02:36:08.734Z,9.31
2023-05-19T02:39:34.757Z,9.37
2023-05-19T02:42:58.474Z,9.39
2023-05-19T02:46:21.601Z,9.40
2023-05-19T02:49:45.072Z,9.39
2023-05-19T02:53:09.089Z,9.39
2023-05-19T02:56:32.381Z,9.35
2023-05-19T02:59:56.054Z,9.32
2023-05-19T03:03:19.776Z,9.29
2023-05-19T03:06:44.999Z,9.27
2023-05-19T03:10:10.315Z,9.23
2023-05-19T03:13:34.443Z,9.23
2023-05-19T03:16:59.444Z,9.23
2023-05-19T03:20:23.999Z,9.23
2023-05-19T03:23:47.056Z,9.23
2023-05-19T03:27:09.298Z,9.24
2023-05-19T03:30:34.103Z,9.22
2023-05-19T03:34:06.464Z,9.23
2023-05-19T03:37:29.960Z,9.24
2023-05-19T03:40:53.631Z,9.25
2023-05-19T03:44:17.154Z,9.28
2023-05-19T03:47:40.833Z,9.32
2023-05-19T03:51:36.274Z,9.37
2023-05-19T03:55:07.362Z,9.44
2023-05-19T03:58:30.921Z,9.54
2023-05-19T04:01:54.261Z,9.65
2023-05-19T04:05:17.814Z,9.75
2023-05-19T04:08:41.191Z,9.83
2023-05-19T04:12:05.908Z,9.89
2023-05-19T04:15:29.787Z,9.93
2023-05-19T04:18:53.052Z,9.95
2023-05-19T04:22:16.912Z,9.93
2023-05-19T04:25:40.407Z,9.95
2023-05-19T04:29:04.389Z,9.98
2023-05-19T04:32:28.907Z,10.01
2023-05-19T04:35:53.855Z,10.04
2023-05-19T04:39:17.376Z,10.05
2023-05-19T04:42:42.359Z,10.06
2023-05-19T04:46:06.587Z,10.07
2023-05-19T04:49:30.825Z,10.08
2023-05-19T04:52:54.527Z,10.09
2023-05-19T04:56:17.988Z,10.11
2023-05-19T04:59:41.902Z,10.13
2023-05-19T05:03:07.495Z,10.15
2023-05-19T05:06:31.457Z,10.13
2023-05-19T05:09:54.546Z,10.15
2023-05-19T05:13:19.657Z,10.21
2023-05-19T05:16:45.260Z,10.27
2023-05-19T05:20:14.922Z,10.34
2023-05-19T05:23:40.195Z,10.42
2023-05-19T05:27:04.065Z,10.51
2023-05-19T05:30:28.031Z,10.59
2023-05-19T05:33:53.765Z,10.66
2023-05-19T05:37:19.904Z,10.74
2023-05-19T05:40:43.776Z,10.82
2023-05-19T05:44:06.999Z,10.89
2023-05-19T05:47:29.816Z,10.96
2023-05-19T05:50:54.682Z,11.02
2023-05-19T05:54:22.720Z,11.11
2023-05-19T05:57:48.418Z,11.19
2023-05-19T06:01:11.730Z,11.26
2023-05-19T06:04:35.556Z,11.34
2023-05-19T06:08:01.232Z,11.41
2023-05-19T06:11:25.723Z,11.48
2023-05-19T06:14:51.780Z,11.54
2023-05-19T06:18:38.116Z,11.56
2023-05-19T06:22:01.694Z,11.58
2023-05-19T06:25:26.295Z,11.58
2023-05-19T06:28:50.865Z,11.60
2023-05-19T06:32:14.567Z,11.62
2023-05-19T06:35:38.130Z,11.68
2023-05-19T06:39:02.778Z,11.76
2023-05-19T06:42:28.000Z,11.85
2023-05-19T06:45:55.355Z,11.94
2023-05-19T06:49:20.170Z,12.03
2023-05-19T06:52:46.554Z,12.16
2023-05-19T06:56:10.483Z,12.28
2023-05-19T06:59:37.132Z,12.41
2023-05-19T07:03:02.400Z,12.51
2023-05-19T07:06:26.170Z,12.60
2023-05-19T07:09:49.652Z,12.68
2023-05-19T07:13:14.955Z,12.75
2023-05-19T07:16:38.451Z,12.81
2023-05-19T07:20:06.266Z,12.86
2023-05-19T07:23:29.362Z,12.92
2023-05-19T07:26:51.864Z,12.98
2023-05-19T07:30:15.797Z,13.00
2023-05-19T07:33:39.541Z,13.05
2023-05-19T07:37:03.241Z,13.11
2023-05-19T07:40:26.840Z,13.17
2023-05-19T07:43:50.083Z,13.24
2023-05-19T07:47:13.515Z,13.30
2023-05-19T07:50:36.617Z,13.36
2023-05-19T07:53:59.973Z,13.41
2023-05-19T07:57:22.998Z,13.46
2023-05-19T08:00:45.967Z,13.50
2023-05-19T08:04:12.589Z,13.56
2023-05-19T08:07:36.752Z,13.65
2023-05-19T08:11:04.046Z,13.74
2023-05-19T08:14:27.731Z,13.81
2023-05-19T08:17:51.308Z,13.86
2023-05-19T08:21:14.833Z,13.93
2023-05-19T08:24:38.823Z,14.00
2023-05-19T08:28:04.828Z,14.08
2023-05-19T08:31:28.973Z,14.14
2023-05-19T08:34:52.462Z,14.18
2023-05-19T08:38:16.016Z,14.22
2023-05-19T08:41:39.831Z,14.26
2023-05-19T08:45:04.748Z,14.31
2023-05-19T08:48:30.890Z,14.36
2023-05-19T08:52:01.372Z,14.43
2023-05-19T08:55:34.744Z,14.51
2023-05-19T08:59:00.203Z,14.64
2023-05-19T09:02:24.399Z,14.77
2023-05-19T09:05:49.308Z,14.90
2023-05-19T09:09:12.797Z,15.02
2023-05-19T09:12:37.553Z,15.16
2023-05-19T09:16:01.638Z,15.28
2023-05-19T09:19:29.752Z,15.37
2023-05-19T09:22:53.506Z,15.45
2023-05-19T09:26:17.741Z,15.53
2023-05-19T09:29:41.197Z,15.63
2023-05-19T09:33:09.630Z,15.73
2023-05-19T09:36:34.800Z,15.84
2023-05-19T09:39:58.784Z,15.94
2023-05-19T09:43:23.103Z,15.98
2023-05-19T09:46:50.348Z,16.05
2023-05-19T09:50:14.246Z,16.08
2023-05-19T09:53:39.161Z,16.10
2023-05-19T09:57:08.153Z,16.09
2023-05-19T10:00:34.483Z,16.07
2023-05-19T10:03:59.063Z,16.03
2023-05-19T10:07:32.333Z,16.02
2023-05-19T10:10:56.877Z,15.99
2023-05-19T10:14:23.191Z,15.93
2023-05-19T10:17:47.190Z,15.91
2023-05-19T10:21:12.622Z,15.94
2023-05-19T10:24:36.075Z,15.97
2023-05-19T10:28:08.117Z,16.08
2023-05-19T10:31:33.854Z,16.16
2023-05-19T10:35:27.146Z,16.22
2023-05-19T10:38:58.955Z,16.31
2023-05-19T10:42:37.245Z,16.39
2023-05-19T10:46:01.007Z,16.48
2023-05-19T10:49:27.113Z,16.59
2023-05-19T10:52:56.202Z,16.61
2023-05-19T10:56:34.408Z,16.57
2023-05-19T11:00:00.292Z,16.54
2023-05-19T11:03:24.600Z,16.51
2023-05-19T11:06:52.108Z,16.46
2023-05-19T11:10:24.406Z,16.39
2023-05-19T11:13:50.531Z,16.25
2023-05-19T11:17:16.015Z,16.18
2023-05-19T11:20:40.275Z,16.12
2023-05-19T11:24:08.394Z,16.08
2023-05-19T11:27:32.958Z,16.03
2023-05-19T11:31:03.639Z,15.97
2023-05-19T11:34:30.255Z,15.92
2023-05-19T11:37:55.290Z,15.82
2023-05-19T11:41:20.771Z,15.71
2023-05-19T11:44:45.802Z,15.60
2023-05-19T11:48:12.466Z,15.54
2023-05-19T11:51:36.178Z,15.54
2023-05-19T11:55:02.308Z,15.52
2023-05-19T11:58:27.933Z,15.54
2023-05-19T12:01:51.247Z,15.55
2023-05-19T12:05:22.157Z,15.56
2023-05-19T12:08:46.218Z,15.55
2023-05-19T12:12:13.192Z,15.52
2023-05-19T12:15:36.954Z,15.48
2023-05-19T12:19:00.864Z,15.48
2023-05-19T12:22:24.461Z,15.48
2023-05-19T12:25:48.492Z,15.45
2023-05-19T12:29:14.323Z,15.43
2023-05-19T12:32:38.560Z,15.42
2023-05-19T12:36:01.877Z,15.36
2023-05-19T12:39:26.912Z,15.29
2023-05-19T12:42:53.071Z,15.20
2023-05-19T12:46:16.303Z,15.09
2023-05-19T12:49:55.575Z,14.98
2023-05-19T12:53:19.447Z,14.89
2023-05-19T12:56:51.699Z,14.79
2023-05-19T13:00:20.773Z,14.75
2023-05-19T13:03:44.335Z,14.71
2023-05-19T13:07:07.567Z,14.68
2023-05-19T13:10:32.889Z,14.68
2023-05-19T13:13:57.824Z,14.74
2023-05-19T13:17:21.322Z,14.82
2023-05-19T13:20:46.694Z,14.87
2023-05-19T13:24:10.673Z,14.94
2023-05-19T13:27:35.393Z,14.98
2023-05-19T13:30:59.681Z,15.05
2023-05-19T13:34:23.427Z,15.10
2023-05-19T13:37:48.448Z,15.10
2023-05-19T13:41:13.812Z,15.05
2023-05-19T13:44:38.449Z,15.04
2023-05-19T13:48:01.793Z,15.00
2023-05-19T13:51:25.412Z,14.93
2023-05-19T13:54:49.350Z,14.84
2023-05-19T13:58:16.711Z,14.72
2023-05-19T14:01:40.366Z,14.62
2023-05-19T14:05:04.864Z,14.56
2023-05-19T14:08:28.830Z,14.51
2023-05-19T14:11:52.373Z,14.47
2023-05-19T14:15:16.945Z,14.41
2023-05-19T14:18:40.392Z,14.39
2023-05-19T14:22:04.816Z,14.35
2023-05-19T14:25:30.500Z,14.31
2023-05-19T14:28:54.024Z,14.33
2023-05-19T14:32:20.289Z,14.36
2023-05-19T14:35:45.787Z,14.39
2023-05-19T14:39:09.162Z,14.40
2023-05-19T14:42:32.470Z,14.39
2023-05-19T14:45:56.580Z,14.37
2023-05-19T14:49:21.897Z,14.38
2023-05-19T14:52:48.425Z,14.34
2023-05-19T14:56:11.908Z,14.29
2023-05-19T14:59:38.464Z,14.25
2023-05-19T15:03:02.172Z,14.20
2023-05-19T15:06:25.309Z,14.15
2023-05-19T15:09:49.167Z,14.12
2023-05-19T15:13:13.248Z,14.12
2023-05-19T15:16:39.973Z,14.05
2023-05-19T15:20:04.612Z,13.99
2023-05-19T15:23:27.857Z,13.94
2023-05-19T15:26:52.185Z,13.91
2023-05-19T15:30:15.633Z,13.87
2023-05-19T15:33:42.074Z,13.86
2023-05-19T15:37:05.063Z,13.86
2023-05-19T15:40:28.663Z,13.85
2023-05-19T15:43:53.038Z,13.84
2023-05-19T15:47:16.410Z,13.85
2023-05-19T15:50:40.123Z,13.85
2023-05-19T15:54:03.659Z,13.84
2023-05-19T15:57:27.214Z,13.80
2023-05-19T16:00:51.250Z,13.81
2023-05-19T16:04:15.027Z,13.79
2023-05-19T16:07:38.443Z,13.75
2023-05-19T16:11:01.905Z,13.73
2023-05-19T16:14:27.680Z,13.72
2023-05-19T16:17:54.882Z,13.69
2023-05-19T16:21:18.731Z,13.64
2023-05-19T16:24:44.225Z,13.64
2023-05-19T16:28:08.199Z,13.63
2023-05-19T16:31:31.955Z,13.64
2023-05-19T16:34:55.403Z,13.68
2023-05-19T16:38:19.767Z,13.72
2023-05-19T16:41:44.706Z,13.78
2023-05-19T16:45:10.541Z,13.78
2023-05-19T16:48:34.422Z,13.81
2023-05-19T16:51:57.775Z,13.80
2023-05-19T16:55:20.161Z,13.79
2023-05-19T16:58:43.183Z,13.75
2023-05-19T17:02:06.079Z,13.73
2023-05-19T17:05:29.565Z,13.71
2023-05-19T17:08:59.254Z,13.70
2023-05-19T17:12:22.600Z,13.67
2023-05-19T17:15:45.764Z,13.62
2023-05-19T17:19:08.114Z,13.59
2023-05-19T17:22:31.416Z,13.54
2023-05-19T17:25:55.926Z,13.52
2023-05-19T17:29:19.131Z,13.50
2023-05-19T17:32:42.857Z,13.49
2023-05-19T17:36:08.548Z,13.49
2023-05-19T17:39:32.280Z,13.50
2023-05-19T17:42:56.193Z,13.52
2023-05-19T17:46:20.099Z,13.54
2023-05-19T17:49:43.858Z,13.59
2023-05-19T17:53:08.601Z,13.62
2023-05-19T17:56:39.512Z,13.64
2023-05-19T18:00:07.277Z,13.64
2023-05-19T18:03:32.850Z,13.64
2023-05-19T18:06:58.807Z,13.60
2023-05-19T18:10:26.155Z,13.55
2023-05-19T18:13:49.868Z,13.49
2023-05-19T18:17:18.802Z,13.42
2023-05-19T18:20:45.312Z,13.38
2023-05-19T18:24:09.479Z,13.34
2023-05-19T18:27:34.216Z,13.30
2023-05-19T18:31:05.431Z,13.29
2023-05-19T18:34:29.699Z,13.27
2023-05-19T18:37:57.162Z,13.23
2023-05-19T18:41:25.244Z,13.21
2023-05-19T18:44:50.538Z,13.21
2023-05-19T18:48:15.453Z,13.22
2023-05-19T18:51:42.415Z,13.23
2023-05-19T18:55:09.656Z,13.23
2023-05-19T18:58:32.908Z,13.24
2023-05-19T19:01:56.413Z,13.22
2023-05-19T19:05:20.253Z,13.20
2023-05-19T19:08:43.495Z,13.17
2023-05-19T19:12:07.550Z,13.15
2023-05-19T19:15:31.197Z,13.11
2023-05-19T19:18:54.786Z,13.08
2023-05-19T19:22:18.584Z,13.05
2023-05-19T19:25:40.944Z,13.00
2023-05-19T19:29:04.505Z,12.91
2023-05-19T19:32:28.360Z,12.87
2023-05-19T19:35:52.137Z,12.85
2023-05-19T19:39:15.897Z,12.84
2023-05-19T19:42:39.960Z,12.86
2023-05-19T19:46:06.509Z,12.86
2023-05-19T19:49:31.408Z,12.86
2023-05-19T19:52:55.605Z,12.88
2023-05-19T19:56:19.085Z,12.90
2023-05-19T19:59:42.874Z,12.92
2023-05-19T20:03:07.304Z,12.93
2023-05-19T20:06:31.773Z,12.94
2023-05-19T20:09:56.052Z,12.92
2023-05-19T20:13:20.308Z,12.89
2023-05-19T20:16:43.748Z,12.87
2023-05-19T20:20:11.306Z,12.85
2023-05-19T20:23:40.287Z,12.82
2023-05-19T20:27:04.592Z,12.79
2023-05-19T20:30:28.049Z,12.75
2023-05-19T20:33:51.522Z,12.71
2023-05-19T20:37:17.146Z,12.66
2023-05-19T20:40:40.902Z,12.63
2023-05-19T20:44:05.640Z,12.62
2023-05-19T20:47:32.991Z,12.61
2023-05-19T20:50:58.193Z,12.63
2023-05-19T20:54:22.948Z,12.67
2023-05-19T20:57:46.492Z,12.72
2023-05-19T21:01:10.332Z,12.78
2023-05-19T21:04:34.899Z,12.81
2023-05-19T21:07:58.732Z,12.84
2023-05-19T21:11:22.047Z,12.85
2023-05-19T21:14:44.298Z,12.83
2023-05-19T21:18:08.004Z,12.77
2023-05-19T21:21:32.174Z,12.75
2023-05-19T21:24:56.173Z,12.72
2023-05-19T21:28:19.601Z,12.68
2023-05-19T21:31:43.562Z,12.66
2023-05-19T21:35:09.315Z,12.62
2023-05-19T21:38:34.153Z,12.60
2023-05-19T21:41:58.013Z,12.59
2023-05-19T21:45:24.735Z,12.57
2023-05-19T21:48:51.204Z,12.57
2023-05-19T21:52:18.928Z,12.59
2023-05-19T21:55:44.459Z,12.63
2023-05-19T21:59:08.666Z,12.66
2023-05-19T22:02:32.998Z,12.69
2023-05-19T22:05:58.527Z,12.71
2023-05-19T22:09:24.862Z,12.73
2023-05-19T22:12:48.154Z,12.76
2023-05-19T22:16:13.198Z,12.78
2023-05-19T22:19:40.692Z,12.74
2023-05-19T22:23:05.046Z,12.72
2023-05-19T22:26:31.102Z,12.68
2023-05-19T22:29:56.507Z,12.66
2023-05-19T22:33:20.974Z,12.63
2023-05-19T22:36:46.642Z,12.61
2023-05-19T22:40:11.317Z,12.59
2023-05-19T22:43:34.590Z,12.57
2023-05-19T22:47:04.153Z,12.56
2023-05-19T22:50:29.043Z,12.58
2023-05-19T22:53:53.779Z,12.60
2023-05-19T22:57:19.141Z,12.64
2023-05-19T23:00:43.206Z,12.69
2023-05-19T23:04:07.815Z,12.73
2023-05-19T23:07:33.488Z,12.77
2023-05-19T23:11:01.797Z,12.80
2023-05-19T23:14:28.681Z,12.82
2023-05-19T23:17:52.141Z,12.84
2023-05-19T23:21:14.408Z,12.86
2023-05-19T23:24:37.634Z,12.83
2023-05-19T23:28:01.232Z,12.81
2023-05-19T23:31:25.008Z,12.79
2023-05-19T23:34:49.200Z,12.76
2023-05-19T23:38:14.284Z,12.73
2023-05-19T23:41:40.630Z,12.69
2023-05-19T23:45:05.527Z,12.66
2023-05-19T23:48:31.280Z,12.64
2023-05-19T23:51:57.895Z,12.63
2023-05-19T23:55:23.026Z,12.62
2023-05-19T23:58:46.508Z,12.64
